Terminal Aerodrome Forecast
Issued by NWS Huntsville, AL

Home | Current Version | Previous Version | Text Only | Print | Product List | Glossary On
Versions: 1 2 3 4 5 6 7 8 9 10 11 12 13 14 15 16 17 18 19 20 21 22 23 24 25 26 27 28 29 30
000
FTUS44 KHUN 181730
TAFHSV
TAF
KHSV 181730Z 1818/1918 01004KT P6SM SCT035 BKN060
     FM182300 VRB03KT P6SM BKN060
     FM190600 11005KT P6SM BKN025 OVC050
     FM191000 09004KT 6SM BR OVC015
     FM191400 12005KT 4SM -RA BR OVC015
      TEMPO 1914/1917 2SM -RA BR OVC007=

USA.gov is the U.S. government's official web portal to all federal, state and local government web resources and services.